USTRANSCOM 7581


KWRI
Joint Base McGuire Dix Lakehurst
Wrightstown, New Jersey, US
EGUN
RAF Mildenhall
Mildenhall, , GB

Route Details

Aircraft Information
Primary: Boeing 767-300BDSF
Backup: Boeing 757-200SF
Route Data
Distance: 3069nm
Sched. Duration: 6h 40m
Avg. Duration: 1h 39m (-500m)
Times Flown: 1
Recm'd Route: Not Available
Planned Altitude: 31,000ft
Origin Wx: KWRI 260556Z 04005KT 6SM BR OVC005 11/11 A3017 RMK AO2A CIG 003 RWY18 SLP217 60000 T01090107 10109 20083 58013
Dest. Wx: EGUN 260558Z 23005KT 9999 FEW050 07/04 A2937 RMK AO2A SLP944 WND DATA ESTMD RVRNO $
Notes: USTRANSCOM CONTRACT FLIGHT

Financial History
Total Freight: 89,740lbs
Average Load: 89,740lbs/flt
Fuel Used: 23,511lbs
Avg. Fuel Used: 23,511lbs/flt
Fuel Expense: $23,276
Avg. Fuel Expense: $23,276
Avg. Fuel Cost: $0.99/lbs
Total Gross Income: $190,249
Pilot Pay: $259
Total Expenses: $20,599
Total Revenue: $146,011
Average Revenue: $190,248.80